Puryear, TN (38251)

2:08 AM CDT on September 20, 2014 (GMT -0500)
PARIS COUNTRY CLUB/JONNIE DR. | Change Station
CLOSE
Current Station
Personal Weather Station
Location: Paris, TN
Elevation: 404 ft
Nearby Weather Stations

Elev 404 ft 36.35 °N, 88.24 °W | Updated 12 minutes ago

Clear
Clear
59.8 °F
Feels Like 59.8 °F
N
0.0
Wind Variable Wind from South
Gusts 0.0 mph

Today
High -- | Low -- °F
--% Chance of Precip.
Yesterday
High -- | Low -- °F
Precip. -- in
6:39 AM 6:53 PM
Waning Crescent, 14% visible
Pressure 30.04 in
Visibility 8.0 miles
Clouds Clear
Dew Point 59 °F
Humidity 98%
Rainfall 0.00 in
Snow Depth Not available.
UV 0 out of 12
Pollen 7.40 out of 12
Air Quality Not available.
Flu Activity Not available.
METAR KCEY 200655Z AUTO 00000KT 8SM CLR 17/16 A3004 RMK AO1

More Conditions Fewer Conditions

Pressure 30.04 in
Visibility 8.0 miles
Clouds Clear
Dew Point 59 °F
Humidity 98%
Rainfall 0.00 in
Snow Depth Not available.
UV 0 out of 12
Pollen 7.40 out of 12
Air Quality Not available.
Flu Activity Not available.
METAR KCEY 200655Z AUTO 00000KT 8SM CLR 17/16 A3004 RMK AO1

More Conditions Fewer Conditions

10-Day Weather Forecast

Almanac

Astronomy

Sep. 20, 2014 Rise Set
Actual Time 6:39 AM CDT 6:53 PM CDT
Civil Twilight 6:13 AM CDT 7:18 PM CDT
Nautical Twilight 5:43 AM CDT 7:49 PM CDT
Astronomical Twilight 5:13 AM CDT 8:19 PM CDT
Moon 3:23 AM CDT 4:52 PM CDT
Length of Visible Light 13h 05m
Length of Day
12h 13m
Tomorrow will be 2m 19s shorter.
Waning Crescent, 14% of the Moon is Illuminated
Today
Waning Crescent
Sep 24
New
Oct 1
First Quarter
Oct 8
Full
Oct 15
Last Quarter

Today's Extremes

State Highs State Lows

Community

WunderPhotos

Upload Photos

1,754,780 photos uploaded!

WunderBlogs® & News

Nearby

Snow Depth

Station Depth Elevation
No new snow has been reported.

Earthquake Activity

City Distance Mag. Time & Date
No recent earthquake activity has been reported nearby.
Minimum magnitude displayed is 2.5.

Coastal Water Temperatures

Place Temperature
No Stations Reporting

Nearby Weather Stations